Saint-Jerome, Canada
Current Conditions -  °F | °C
As of 7:00 AM on Thursday 23 Oct 2014 (Local Time) from CYMX Reporting Station
Broken Clouds Broken Clouds  
Wind Chill: 41°   Ceiling: 9000
Heat Index: 46°   Visibility: 25mi
Dew Point: 30°   Wind: 12mph
Humidity: 53%   Direction: 50°NE
Pressure: 30.11"   Gusts: 21mph
Location:  45.77°N, 74°W
Report Text: CYMX 231100Z 05010G18KT 350V090 25SM SCT030 BKN090 08/M01 A3011 RMK SC4AC3 SLP200
Loading
Personal Weather Stations






























Interactive Weather Map
Tropical Storm Tracking
New forecast layout! Learn more

10-Day Weather Forecast

Advertisements
Track Severe Weather on mobile